Аэропорт: Кневичи. Владивосток

ICAO: UHWW

METAR:
2019-09-21 15:30:00
UHWW 211530Z VRB01MPS 9999 NSC 07/07 Q1024 R25L/0///70 NOSIG RMK QFE767
METAR:
2019-09-21 13:53:00
TAF UHWW 211353Z 2115/2215 02003MPS 3100 BR SCT010 TEMPO 2116/2124 VRB01MPS 0400 FG VV002 BECMG 2200/2202 9999 NSW NSC